sensor_id;sensor_type;location;lat;lon;timestamp;P1;durP1;ratioP1;P2;durP2;ratioP2
28311;SDS011;15572;48.810;9.148;2024-01-06T00:04:40;10.47;;;4.63;;
28311;SDS011;15572;48.810;9.148;2024-01-06T00:09:36;9.37;;;4.40;;
28311;SDS011;15572;48.810;9.148;2024-01-06T00:14:34;8.73;;;3.27;;
28311;SDS011;15572;48.810;9.148;2024-01-06T00:19:30;4.97;;;2.27;;
28311;SDS011;15572;48.810;9.148;2024-01-06T00:24:27;5.00;;;2.13;;
28311;SDS011;15572;48.810;9.148;2024-01-06T00:29:23;5.60;;;2.50;;
28311;SDS011;15572;48.810;9.148;2024-01-06T00:34:21;7.60;;;2.27;;
28311;SDS011;15572;48.810;9.148;2024-01-06T00:39:17;6.87;;;2.37;;
28311;SDS011;15572;48.810;9.148;2024-01-06T00:44:14;7.37;;;2.23;;
28311;SDS011;15572;48.810;9.148;2024-01-06T00:49:11;5.73;;;2.20;;
28311;SDS011;15572;48.810;9.148;2024-01-06T00:54:09;4.57;;;2.20;;
28311;SDS011;15572;48.810;9.148;2024-01-06T00:59:05;3.73;;;2.10;;
28311;SDS011;15572;48.810;9.148;2024-01-06T01:04:01;4.03;;;2.20;;
28311;SDS011;15572;48.810;9.148;2024-01-06T01:08:58;4.27;;;2.07;;
28311;SDS011;15572;48.810;9.148;2024-01-06T01:13:56;6.57;;;1.90;;
28311;SDS011;15572;48.810;9.148;2024-01-06T01:18:52;4.50;;;2.10;;
28311;SDS011;15572;48.810;9.148;2024-01-06T01:23:49;5.10;;;2.20;;
28311;SDS011;15572;48.810;9.148;2024-01-06T01:28:45;3.33;;;2.00;;
28311;SDS011;15572;48.810;9.148;2024-01-06T01:33:43;8.70;;;1.83;;
28311;SDS011;15572;48.810;9.148;2024-01-06T01:38:39;6.27;;;2.20;;
28311;SDS011;15572;48.810;9.148;2024-01-06T01:43:35;3.17;;;1.77;;
28311;SDS011;15572;48.810;9.148;2024-01-06T01:48:33;2.73;;;1.70;;
28311;SDS011;15572;48.810;9.148;2024-01-06T01:53:31;6.63;;;2.00;;
28311;SDS011;15572;48.810;9.148;2024-01-06T01:58:27;6.80;;;1.83;;
28311;SDS011;15572;48.810;9.148;2024-01-06T02:03:24;3.40;;;2.00;;
28311;SDS011;15572;48.810;9.148;2024-01-06T02:08:23;3.90;;;1.97;;
28311;SDS011;15572;48.810;9.148;2024-01-06T02:13:21;5.17;;;1.80;;
28311;SDS011;15572;48.810;9.148;2024-01-06T02:18:17;6.63;;;1.83;;
28311;SDS011;15572;48.810;9.148;2024-01-06T02:23:15;4.47;;;1.87;;
28311;SDS011;15572;48.810;9.148;2024-01-06T02:28:11;5.07;;;1.70;;
28311;SDS011;15572;48.810;9.148;2024-01-06T02:33:08;8.23;;;2.10;;
28311;SDS011;15572;48.810;9.148;2024-01-06T02:38:04;5.93;;;1.80;;
28311;SDS011;15572;48.810;9.148;2024-01-06T02:43:02;7.23;;;1.97;;
28311;SDS011;15572;48.810;9.148;2024-01-06T02:47:59;4.90;;;1.83;;
28311;SDS011;15572;48.810;9.148;2024-01-06T02:52:55;2.63;;;1.60;;
28311;SDS011;15572;48.810;9.148;2024-01-06T02:57:51;5.43;;;1.80;;
28311;SDS011;15572;48.810;9.148;2024-01-06T03:02:49;4.97;;;1.90;;
28311;SDS011;15572;48.810;9.148;2024-01-06T03:07:46;5.80;;;1.87;;
28311;SDS011;15572;48.810;9.148;2024-01-06T03:12:44;3.90;;;1.70;;
28311;SDS011;15572;48.810;9.148;2024-01-06T03:17:44;6.63;;;1.97;;
28311;SDS011;15572;48.810;9.148;2024-01-06T03:22:42;4.87;;;1.80;;
28311;SDS011;15572;48.810;9.148;2024-01-06T03:27:38;5.27;;;2.00;;
28311;SDS011;15572;48.810;9.148;2024-01-06T03:32:34;5.43;;;2.00;;
28311;SDS011;15572;48.810;9.148;2024-01-06T03:37:31;4.77;;;1.77;;
28311;SDS011;15572;48.810;9.148;2024-01-06T03:42:30;5.07;;;1.80;;
28311;SDS011;15572;48.810;9.148;2024-01-06T03:47:26;3.17;;;1.90;;
28311;SDS011;15572;48.810;9.148;2024-01-06T03:52:22;7.50;;;1.97;;
28311;SDS011;15572;48.810;9.148;2024-01-06T03:57:19;6.93;;;2.10;;
28311;SDS011;15572;48.810;9.148;2024-01-06T04:02:16;5.03;;;1.80;;
28311;SDS011;15572;48.810;9.148;2024-01-06T04:07:13;5.63;;;1.87;;
28311;SDS011;15572;48.810;9.148;2024-01-06T04:12:09;5.60;;;2.00;;
28311;SDS011;15572;48.810;9.148;2024-01-06T04:17:06;4.87;;;1.83;;
28311;SDS011;15572;48.810;9.148;2024-01-06T04:22:04;5.57;;;2.07;;
28311;SDS011;15572;48.810;9.148;2024-01-06T04:27:00;7.90;;;1.90;;
28311;SDS011;15572;48.810;9.148;2024-01-06T04:31:57;7.23;;;1.90;;
28311;SDS011;15572;48.810;9.148;2024-01-06T04:36:53;4.03;;;1.90;;
28311;SDS011;15572;48.810;9.148;2024-01-06T04:41:51;6.47;;;2.03;;
28311;SDS011;15572;48.810;9.148;2024-01-06T04:46:47;4.30;;;1.97;;
28311;SDS011;15572;48.810;9.148;2024-01-06T04:51:44;5.33;;;2.03;;
28311;SDS011;15572;48.810;9.148;2024-01-06T04:56:40;5.87;;;1.77;;
28311;SDS011;15572;48.810;9.148;2024-01-06T05:01:38;4.20;;;1.70;;
28311;SDS011;15572;48.810;9.148;2024-01-06T05:06:34;5.93;;;2.10;;
28311;SDS011;15572;48.810;9.148;2024-01-06T05:11:30;8.83;;;3.50;;
28311;SDS011;15572;48.810;9.148;2024-01-06T05:16:27;8.00;;;4.10;;
28311;SDS011;15572;48.810;9.148;2024-01-06T05:21:25;6.50;;;2.30;;
28311;SDS011;15572;48.810;9.148;2024-01-06T05:26:22;4.20;;;2.07;;
28311;SDS011;15572;48.810;9.148;2024-01-06T05:31:19;5.43;;;2.27;;
28311;SDS011;15572;48.810;9.148;2024-01-06T05:36:18;7.03;;;2.17;;
28311;SDS011;15572;48.810;9.148;2024-01-06T05:41:16;5.80;;;2.00;;
28311;SDS011;15572;48.810;9.148;2024-01-06T05:46:19;6.03;;;2.17;;
28311;SDS011;15572;48.810;9.148;2024-01-06T05:51:16;5.17;;;2.57;;
28311;SDS011;15572;48.810;9.148;2024-01-06T05:56:22;8.53;;;2.27;;
28311;SDS011;15572;48.810;9.148;2024-01-06T06:01:20;5.67;;;2.47;;
28311;SDS011;15572;48.810;9.148;2024-01-06T06:06:17;6.30;;;2.53;;
28311;SDS011;15572;48.810;9.148;2024-01-06T06:11:13;4.60;;;2.40;;
28311;SDS011;15572;48.810;9.148;2024-01-06T06:16:11;6.57;;;2.50;;
28311;SDS011;15572;48.810;9.148;2024-01-06T06:21:08;4.80;;;2.20;;
28311;SDS011;15572;48.810;9.148;2024-01-06T06:26:05;5.77;;;2.20;;
28311;SDS011;15572;48.810;9.148;2024-01-06T06:31:02;6.60;;;2.30;;
28311;SDS011;15572;48.810;9.148;2024-01-06T06:36:00;5.73;;;2.30;;
28311;SDS011;15572;48.810;9.148;2024-01-06T06:40:56;4.60;;;2.33;;
28311;SDS011;15572;48.810;9.148;2024-01-06T06:45:53;4.83;;;2.30;;
28311;SDS011;15572;48.810;9.148;2024-01-06T06:50:50;4.23;;;2.20;;
28311;SDS011;15572;48.810;9.148;2024-01-06T06:55:48;4.93;;;2.03;;
28311;SDS011;15572;48.810;9.148;2024-01-06T07:00:45;5.10;;;2.43;;
28311;SDS011;15572;48.810;9.148;2024-01-06T07:05:41;3.27;;;2.07;;
28311;SDS011;15572;48.810;9.148;2024-01-06T07:10:38;6.83;;;2.20;;
28311;SDS011;15572;48.810;9.148;2024-01-06T07:15:36;2.80;;;2.13;;
28311;SDS011;15572;48.810;9.148;2024-01-06T07:20:32;2.63;;;1.60;;
28311;SDS011;15572;48.810;9.148;2024-01-06T07:25:28;2.27;;;1.50;;
28311;SDS011;15572;48.810;9.148;2024-01-06T07:30:26;3.23;;;1.67;;
28311;SDS011;15572;48.810;9.148;2024-01-06T07:35:24;3.80;;;1.47;;
28311;SDS011;15572;48.810;9.148;2024-01-06T07:40:20;2.53;;;1.87;;
28311;SDS011;15572;48.810;9.148;2024-01-06T07:45:18;2.90;;;1.37;;
28311;SDS011;15572;48.810;9.148;2024-01-06T07:50:14;1.93;;;1.50;;
28311;SDS011;15572;48.810;9.148;2024-01-06T07:55:12;5.17;;;1.63;;
28311;SDS011;15572;48.810;9.148;2024-01-06T08:00:09;1.20;;;1.03;;
28311;SDS011;15572;48.810;9.148;2024-01-06T08:05:09;4.90;;;1.80;;
28311;SDS011;15572;48.810;9.148;2024-01-06T08:10:06;3.40;;;1.60;;
28311;SDS011;15572;48.810;9.148;2024-01-06T08:15:05;4.17;;;1.60;;
28311;SDS011;15572;48.810;9.148;2024-01-06T08:20:03;2.37;;;1.30;;
28311;SDS011;15572;48.810;9.148;2024-01-06T08:25:01;2.53;;;1.60;;
28311;SDS011;15572;48.810;9.148;2024-01-06T08:29:57;3.17;;;1.40;;
28311;SDS011;15572;48.810;9.148;2024-01-06T08:34:55;3.43;;;1.50;;
28311;SDS011;15572;48.810;9.148;2024-01-06T08:39:51;2.30;;;1.20;;
28311;SDS011;15572;48.810;9.148;2024-01-06T08:44:48;4.67;;;1.33;;
28311;SDS011;15572;48.810;9.148;2024-01-06T08:49:44;2.27;;;1.50;;
28311;SDS011;15572;48.810;9.148;2024-01-06T08:54:42;1.53;;;1.43;;
28311;SDS011;15572;48.810;9.148;2024-01-06T08:59:39;2.77;;;1.50;;
28311;SDS011;15572;48.810;9.148;2024-01-06T09:04:36;2.43;;;1.70;;
28311;SDS011;15572;48.810;9.148;2024-01-06T09:09:32;3.10;;;1.70;;
28311;SDS011;15572;48.810;9.148;2024-01-06T09:14:30;3.40;;;2.03;;
28311;SDS011;15572;48.810;9.148;2024-01-06T09:19:26;4.67;;;2.57;;
28311;SDS011;15572;48.810;9.148;2024-01-06T09:24:23;3.00;;;2.00;;
28311;SDS011;15572;48.810;9.148;2024-01-06T09:29:19;3.60;;;2.37;;
28311;SDS011;15572;48.810;9.148;2024-01-06T09:34:17;5.53;;;3.93;;
28311;SDS011;15572;48.810;9.148;2024-01-06T09:39:14;5.87;;;3.20;;
28311;SDS011;15572;48.810;9.148;2024-01-06T09:44:10;3.87;;;3.00;;
28311;SDS011;15572;48.810;9.148;2024-01-06T09:49:07;2.63;;;2.17;;
28311;SDS011;15572;48.810;9.148;2024-01-06T09:54:08;4.50;;;2.00;;
28311;SDS011;15572;48.810;9.148;2024-01-06T09:59:05;2.30;;;2.03;;
28311;SDS011;15572;48.810;9.148;2024-01-06T10:04:02;2.10;;;1.80;;
28311;SDS011;15572;48.810;9.148;2024-01-06T10:08:58;3.43;;;2.30;;
28311;SDS011;15572;48.810;9.148;2024-01-06T10:13:56;3.40;;;2.80;;
28311;SDS011;15572;48.810;9.148;2024-01-06T10:18:52;2.50;;;1.87;;
28311;SDS011;15572;48.810;9.148;2024-01-06T10:23:49;2.50;;;1.60;;
28311;SDS011;15572;48.810;9.148;2024-01-06T10:28:47;3.50;;;1.60;;
28311;SDS011;15572;48.810;9.148;2024-01-06T10:33:45;3.37;;;2.10;;
28311;SDS011;15572;48.810;9.148;2024-01-06T10:38:42;3.30;;;2.17;;
28311;SDS011;15572;48.810;9.148;2024-01-06T10:43:40;2.00;;;1.70;;
28311;SDS011;15572;48.810;9.148;2024-01-06T10:48:38;2.80;;;1.70;;
28311;SDS011;15572;48.810;9.148;2024-01-06T10:53:39;2.50;;;1.90;;
28311;SDS011;15572;48.810;9.148;2024-01-06T10:58:36;1.50;;;1.40;;
28311;SDS011;15572;48.810;9.148;2024-01-06T11:03:38;2.23;;;1.70;;
28311;SDS011;15572;48.810;9.148;2024-01-06T11:08:35;2.47;;;2.07;;
28311;SDS011;15572;48.810;9.148;2024-01-06T11:13:45;2.90;;;2.23;;
28311;SDS011;15572;48.810;9.148;2024-01-06T11:18:42;5.47;;;3.17;;
28311;SDS011;15572;48.810;9.148;2024-01-06T11:23:40;3.73;;;2.80;;
28311;SDS011;15572;48.810;9.148;2024-01-06T11:28:43;4.07;;;3.67;;
28311;SDS011;15572;48.810;9.148;2024-01-06T11:33:42;4.77;;;3.50;;
28311;SDS011;15572;48.810;9.148;2024-01-06T11:38:39;4.23;;;3.53;;
28311;SDS011;15572;48.810;9.148;2024-01-06T11:43:35;4.70;;;3.20;;
28311;SDS011;15572;48.810;9.148;2024-01-06T11:48:35;4.63;;;4.23;;
28311;SDS011;15572;48.810;9.148;2024-01-06T11:53:33;6.17;;;3.40;;
28311;SDS011;15572;48.810;9.148;2024-01-06T11:58:31;5.97;;;5.37;;
28311;SDS011;15572;48.810;9.148;2024-01-06T12:03:28;5.43;;;3.50;;
28311;SDS011;15572;48.810;9.148;2024-01-06T12:08:25;4.90;;;3.93;;
28311;SDS011;15572;48.810;9.148;2024-01-06T12:13:24;5.20;;;4.00;;
28311;SDS011;15572;48.810;9.148;2024-01-06T12:18:22;5.00;;;4.00;;
28311;SDS011;15572;48.810;9.148;2024-01-06T12:23:25;6.80;;;4.70;;
28311;SDS011;15572;48.810;9.148;2024-01-06T12:28:24;5.73;;;3.77;;
28311;SDS011;15572;48.810;9.148;2024-01-06T12:33:22;7.47;;;4.70;;
28311;SDS011;15572;48.810;9.148;2024-01-06T12:38:19;4.57;;;3.53;;
28311;SDS011;15572;48.810;9.148;2024-01-06T12:43:15;8.17;;;5.00;;
28311;SDS011;15572;48.810;9.148;2024-01-06T12:48:13;6.37;;;4.13;;
28311;SDS011;15572;48.810;9.148;2024-01-06T12:53:10;5.43;;;4.47;;
28311;SDS011;15572;48.810;9.148;2024-01-06T12:58:07;6.20;;;4.50;;
28311;SDS011;15572;48.810;9.148;2024-01-06T13:03:04;6.20;;;4.63;;
28311;SDS011;15572;48.810;9.148;2024-01-06T13:08:02;6.83;;;5.00;;
28311;SDS011;15572;48.810;9.148;2024-01-06T13:12:59;7.07;;;5.70;;
28311;SDS011;15572;48.810;9.148;2024-01-06T13:17:56;6.87;;;4.97;;
28311;SDS011;15572;48.810;9.148;2024-01-06T13:22:52;7.23;;;5.57;;
28311;SDS011;15572;48.810;9.148;2024-01-06T13:27:51;10.50;;;7.07;;
28311;SDS011;15572;48.810;9.148;2024-01-06T13:32:47;10.07;;;6.37;;
28311;SDS011;15572;48.810;9.148;2024-01-06T13:37:45;9.07;;;6.47;;
28311;SDS011;15572;48.810;9.148;2024-01-06T13:42:43;7.70;;;6.10;;
28311;SDS011;15572;48.810;9.148;2024-01-06T13:47:41;9.63;;;5.63;;
28311;SDS011;15572;48.810;9.148;2024-01-06T13:52:39;8.37;;;5.53;;
28311;SDS011;15572;48.810;9.148;2024-01-06T13:57:36;11.17;;;6.80;;
28311;SDS011;15572;48.810;9.148;2024-01-06T14:02:37;8.43;;;6.67;;
28311;SDS011;15572;48.810;9.148;2024-01-06T14:07:35;8.30;;;5.77;;
28311;SDS011;15572;48.810;9.148;2024-01-06T14:12:33;9.07;;;7.97;;
28311;SDS011;15572;48.810;9.148;2024-01-06T14:17:30;7.43;;;6.13;;
28311;SDS011;15572;48.810;9.148;2024-01-06T14:22:26;7.03;;;5.77;;
28311;SDS011;15572;48.810;9.148;2024-01-06T14:27:24;9.13;;;5.93;;
28311;SDS011;15572;48.810;9.148;2024-01-06T14:32:23;11.63;;;8.77;;
28311;SDS011;15572;48.810;9.148;2024-01-06T14:37:20;11.27;;;7.93;;
28311;SDS011;15572;48.810;9.148;2024-01-06T14:42:16;12.50;;;8.97;;
28311;SDS011;15572;48.810;9.148;2024-01-06T14:47:15;11.67;;;8.53;;
28311;SDS011;15572;48.810;9.148;2024-01-06T14:52:11;13.77;;;8.73;;
28311;SDS011;15572;48.810;9.148;2024-01-06T14:57:08;15.07;;;9.73;;
28311;SDS011;15572;48.810;9.148;2024-01-06T15:02:05;11.10;;;8.37;;
28311;SDS011;15572;48.810;9.148;2024-01-06T15:07:03;13.33;;;8.43;;
28311;SDS011;15572;48.810;9.148;2024-01-06T15:12:00;12.43;;;8.07;;
28311;SDS011;15572;48.810;9.148;2024-01-06T15:16:56;15.10;;;9.97;;
28311;SDS011;15572;48.810;9.148;2024-01-06T15:21:53;15.27;;;9.33;;
28311;SDS011;15572;48.810;9.148;2024-01-06T15:26:51;14.10;;;9.63;;
28311;SDS011;15572;48.810;9.148;2024-01-06T15:31:48;13.43;;;8.67;;
28311;SDS011;15572;48.810;9.148;2024-01-06T15:36:46;16.23;;;11.07;;
28311;SDS011;15572;48.810;9.148;2024-01-06T15:41:42;15.23;;;10.00;;
28311;SDS011;15572;48.810;9.148;2024-01-06T15:46:40;15.57;;;10.50;;
28311;SDS011;15572;48.810;9.148;2024-01-06T15:51:36;14.13;;;9.67;;
28311;SDS011;15572;48.810;9.148;2024-01-06T15:56:33;15.97;;;10.17;;
28311;SDS011;15572;48.810;9.148;2024-01-06T16:01:29;17.93;;;10.07;;
28311;SDS011;15572;48.810;9.148;2024-01-06T16:06:27;15.93;;;12.07;;
28311;SDS011;15572;48.810;9.148;2024-01-06T16:11:23;16.80;;;11.37;;
28311;SDS011;15572;48.810;9.148;2024-01-06T16:16:20;21.27;;;12.17;;
28311;SDS011;15572;48.810;9.148;2024-01-06T16:21:20;19.83;;;12.10;;
28311;SDS011;15572;48.810;9.148;2024-01-06T16:26:19;23.27;;;13.07;;
28311;SDS011;15572;48.810;9.148;2024-01-06T16:31:15;19.63;;;12.43;;
28311;SDS011;15572;48.810;9.148;2024-01-06T16:36:12;22.57;;;13.73;;
28311;SDS011;15572;48.810;9.148;2024-01-06T16:41:09;21.30;;;12.57;;
28311;SDS011;15572;48.810;9.148;2024-01-06T16:46:07;21.40;;;13.67;;
28311;SDS011;15572;48.810;9.148;2024-01-06T16:51:04;23.17;;;14.13;;
28311;SDS011;15572;48.810;9.148;2024-01-06T16:56:02;23.43;;;14.57;;
28311;SDS011;15572;48.810;9.148;2024-01-06T17:00:59;21.07;;;14.27;;
28311;SDS011;15572;48.810;9.148;2024-01-06T17:05:57;27.70;;;14.70;;
28311;SDS011;15572;48.810;9.148;2024-01-06T17:10:53;22.00;;;14.00;;
28311;SDS011;15572;48.810;9.148;2024-01-06T17:15:50;25.80;;;16.77;;
28311;SDS011;15572;48.810;9.148;2024-01-06T17:20:47;21.87;;;14.70;;
28311;SDS011;15572;48.810;9.148;2024-01-06T17:25:44;21.77;;;14.27;;
28311;SDS011;15572;48.810;9.148;2024-01-06T17:30:41;21.47;;;14.43;;
28311;SDS011;15572;48.810;9.148;2024-01-06T17:35:38;22.53;;;16.13;;
28311;SDS011;15572;48.810;9.148;2024-01-06T17:40:34;19.27;;;13.13;;
28311;SDS011;15572;48.810;9.148;2024-01-06T17:45:32;20.03;;;13.40;;
28311;SDS011;15572;48.810;9.148;2024-01-06T17:50:29;20.10;;;13.23;;
28311;SDS011;15572;48.810;9.148;2024-01-06T17:55:25;22.37;;;15.80;;
28311;SDS011;15572;48.810;9.148;2024-01-06T18:00:23;22.93;;;15.53;;
28311;SDS011;15572;48.810;9.148;2024-01-06T18:05:20;22.97;;;14.43;;
28311;SDS011;15572;48.810;9.148;2024-01-06T18:10:17;22.90;;;14.43;;
28311;SDS011;15572;48.810;9.148;2024-01-06T18:15:13;25.80;;;15.53;;
28311;SDS011;15572;48.810;9.148;2024-01-06T18:20:10;23.07;;;14.97;;
28311;SDS011;15572;48.810;9.148;2024-01-06T18:25:10;22.93;;;14.90;;
28311;SDS011;15572;48.810;9.148;2024-01-06T18:30:07;25.87;;;15.47;;
28311;SDS011;15572;48.810;9.148;2024-01-06T18:35:05;25.57;;;15.53;;
28311;SDS011;15572;48.810;9.148;2024-01-06T18:40:03;26.87;;;15.73;;
28311;SDS011;15572;48.810;9.148;2024-01-06T18:45:01;27.57;;;15.47;;
28311;SDS011;15572;48.810;9.148;2024-01-06T18:49:58;32.60;;;17.50;;
28311;SDS011;15572;48.810;9.148;2024-01-06T18:54:54;30.87;;;17.13;;
28311;SDS011;15572;48.810;9.148;2024-01-06T18:59:51;26.83;;;15.73;;
28311;SDS011;15572;48.810;9.148;2024-01-06T19:04:49;30.77;;;17.20;;
28311;SDS011;15572;48.810;9.148;2024-01-06T19:09:45;31.43;;;17.40;;
28311;SDS011;15572;48.810;9.148;2024-01-06T19:14:41;30.13;;;17.23;;
28311;SDS011;15572;48.810;9.148;2024-01-06T19:19:40;28.23;;;16.43;;
28311;SDS011;15572;48.810;9.148;2024-01-06T19:24:38;33.20;;;17.83;;
28311;SDS011;15572;48.810;9.148;2024-01-06T19:29:36;30.27;;;17.70;;
28311;SDS011;15572;48.810;9.148;2024-01-06T19:34:37;32.70;;;19.07;;
28311;SDS011;15572;48.810;9.148;2024-01-06T19:39:33;33.90;;;19.60;;
28311;SDS011;15572;48.810;9.148;2024-01-06T19:44:31;35.13;;;20.47;;
28311;SDS011;15572;48.810;9.148;2024-01-06T19:49:27;41.67;;;23.00;;
28311;SDS011;15572;48.810;9.148;2024-01-06T19:54:24;33.17;;;20.07;;
28311;SDS011;15572;48.810;9.148;2024-01-06T19:59:20;38.73;;;22.20;;
28311;SDS011;15572;48.810;9.148;2024-01-06T20:04:18;36.67;;;21.10;;
28311;SDS011;15572;48.810;9.148;2024-01-06T20:09:14;36.27;;;21.77;;
28311;SDS011;15572;48.810;9.148;2024-01-06T20:14:11;42.07;;;25.97;;
28311;SDS011;15572;48.810;9.148;2024-01-06T20:19:07;35.73;;;20.77;;
28311;SDS011;15572;48.810;9.148;2024-01-06T20:24:05;41.70;;;22.93;;
28311;SDS011;15572;48.810;9.148;2024-01-06T20:29:02;35.70;;;21.87;;
28311;SDS011;15572;48.810;9.148;2024-01-06T20:33:58;37.93;;;20.87;;
28311;SDS011;15572;48.810;9.148;2024-01-06T20:38:55;35.97;;;21.33;;
28311;SDS011;15572;48.810;9.148;2024-01-06T20:43:53;41.70;;;24.00;;
28311;SDS011;15572;48.810;9.148;2024-01-06T20:48:49;41.40;;;21.73;;
28311;SDS011;15572;48.810;9.148;2024-01-06T20:53:47;40.53;;;20.83;;
28311;SDS011;15572;48.810;9.148;2024-01-06T20:58:44;35.93;;;20.57;;
28311;SDS011;15572;48.810;9.148;2024-01-06T21:03:42;37.97;;;19.93;;
28311;SDS011;15572;48.810;9.148;2024-01-06T21:08:38;35.97;;;19.63;;
28311;SDS011;15572;48.810;9.148;2024-01-06T21:13:34;34.70;;;18.83;;
28311;SDS011;15572;48.810;9.148;2024-01-06T21:18:31;36.20;;;20.10;;
28311;SDS011;15572;48.810;9.148;2024-01-06T21:23:29;39.77;;;21.73;;
28311;SDS011;15572;48.810;9.148;2024-01-06T21:28:25;41.33;;;20.63;;
28311;SDS011;15572;48.810;9.148;2024-01-06T21:33:22;33.93;;;19.03;;
28311;SDS011;15572;48.810;9.148;2024-01-06T21:38:18;32.80;;;18.97;;
28311;SDS011;15572;48.810;9.148;2024-01-06T21:43:16;38.53;;;20.27;;
28311;SDS011;15572;48.810;9.148;2024-01-06T21:48:14;31.83;;;17.37;;
28311;SDS011;15572;48.810;9.148;2024-01-06T21:53:10;32.07;;;17.20;;
28311;SDS011;15572;48.810;9.148;2024-01-06T21:58:07;33.43;;;18.53;;
28311;SDS011;15572;48.810;9.148;2024-01-06T22:03:05;35.33;;;19.00;;
28311;SDS011;15572;48.810;9.148;2024-01-06T22:08:01;36.50;;;19.90;;
28311;SDS011;15572;48.810;9.148;2024-01-06T22:12:58;36.30;;;18.13;;
28311;SDS011;15572;48.810;9.148;2024-01-06T22:17:54;37.90;;;19.03;;
28311;SDS011;15572;48.810;9.148;2024-01-06T22:22:52;35.17;;;18.93;;
28311;SDS011;15572;48.810;9.148;2024-01-06T22:27:48;35.50;;;19.20;;
28311;SDS011;15572;48.810;9.148;2024-01-06T22:32:45;36.80;;;19.47;;
28311;SDS011;15572;48.810;9.148;2024-01-06T22:37:42;35.43;;;19.00;;
28311;SDS011;15572;48.810;9.148;2024-01-06T22:42:41;47.17;;;32.63;;
28311;SDS011;15572;48.810;9.148;2024-01-06T22:47:38;35.67;;;18.90;;
28311;SDS011;15572;48.810;9.148;2024-01-06T22:52:34;33.30;;;18.67;;
28311;SDS011;15572;48.810;9.148;2024-01-06T22:57:30;30.20;;;16.97;;
28311;SDS011;15572;48.810;9.148;2024-01-06T23:02:29;36.70;;;18.83;;
28311;SDS011;15572;48.810;9.148;2024-01-06T23:07:25;31.60;;;18.03;;
28311;SDS011;15572;48.810;9.148;2024-01-06T23:12:22;33.40;;;19.77;;
28311;SDS011;15572;48.810;9.148;2024-01-06T23:17:19;31.03;;;17.50;;
28311;SDS011;15572;48.810;9.148;2024-01-06T23:22:17;33.80;;;21.10;;
28311;SDS011;15572;48.810;9.148;2024-01-06T23:27:13;30.50;;;18.20;;
28311;SDS011;15572;48.810;9.148;2024-01-06T23:32:09;31.30;;;17.90;;
28311;SDS011;15572;48.810;9.148;2024-01-06T23:37:06;31.37;;;19.03;;
28311;SDS011;15572;48.810;9.148;2024-01-06T23:42:05;33.37;;;18.80;;
28311;SDS011;15572;48.810;9.148;2024-01-06T23:47:04;31.30;;;18.10;;
28311;SDS011;15572;48.810;9.148;2024-01-06T23:52:00;30.90;;;17.60;;
28311;SDS011;15572;48.810;9.148;2024-01-06T23:56:56;29.87;;;17.03;;
